Time;durP1;ratioP1;P1;durP2;ratioP2;P2;SDS_P1;SDS_P2;PMS_P1;PMS_P2;Temp;Humidity;BMP_temperature;BMP_pressure;BME280_temperature;BME280_humidity;BME280_pressure;Samples;Min_cycle;Max_cycle;Signal;HPM_P1;HPM_P2
2021/06/12 00:00:51;;;;;;;2.17;1.98;;;17.60;99.90;;;;;;4972782;28;20189;-76
2021/06/12 00:03:27;;;;;;;1.80;1.70;;;17.70;99.90;;;;;;4971289;28;20229;-76
2021/06/12 00:05:53;;;;;;;2.28;2.08;;;17.80;99.90;;;;;;4973611;28;20764;-78
2021/06/12 00:08:20;;;;;;;3.05;2.40;;;17.80;99.90;;;;;;4978778;28;20181;-77
2021/06/12 00:10:48;;;;;;;2.90;2.58;;;17.80;99.90;;;;;;4975148;28;20197;-77
2021/06/12 00:13:15;;;;;;;2.05;1.85;;;17.90;99.90;;;;;;4977168;28;20594;-77
2021/06/12 00:15:42;;;;;;;2.13;1.98;;;17.90;99.90;;;;;;4972056;28;20213;-77
2021/06/12 00:18:08;;;;;;;2.25;2.03;;;17.90;99.90;;;;;;4973821;28;20223;-76
2021/06/12 00:20:40;;;;;;;2.08;1.88;;;18.00;99.90;;;;;;4973866;28;20569;-77
2021/06/12 00:23:07;;;;;;;2.45;2.25;;;18.00;99.90;;;;;;4976388;28;20197;-78
2021/06/12 00:25:33;;;;;;;2.00;1.77;;;18.10;99.90;;;;;;4974006;28;20213;-78
2021/06/12 00:27:59;;;;;;;2.40;1.88;;;18.20;99.90;;;;;;4972120;28;20285;-77
2021/06/12 00:30:26;;;;;;;2.95;2.70;;;18.30;99.90;;;;;;4974151;28;20185;-78
2021/06/12 00:32:53;;;;;;;2.33;2.13;;;18.30;99.90;;;;;;4973677;28;20200;-78
2021/06/12 00:35:19;;;;;;;3.97;2.60;;;18.30;99.90;;;;;;4972208;28;20208;-79
2021/06/12 00:37:45;;;;;;;2.20;2.00;;;18.40;99.90;;;;;;4972971;28;20249;-77
2021/06/12 00:40:13;;;;;;;2.40;2.20;;;18.40;99.90;;;;;;4971877;28;20249;-77
2021/06/12 00:42:39;;;;;;;2.00;1.80;;;18.30;99.90;;;;;;4972224;28;20184;-77
2021/06/12 00:45:12;;;;;;;2.47;2.20;;;18.40;99.90;;;;;;4972083;28;20188;-78
2021/06/12 00:47:38;;;;;;;2.30;2.10;;;18.30;99.90;;;;;;4986756;28;20272;-78
2021/06/12 00:50:06;;;;;;;2.20;2.00;;;18.30;99.90;;;;;;4972140;28;20661;-77
2021/06/12 00:52:32;;;;;;;3.28;2.53;;;18.40;99.90;;;;;;4972021;28;20185;-77
2021/06/12 00:54:58;;;;;;;2.28;2.08;;;18.40;99.90;;;;;;4971588;28;20234;-78
2021/06/12 00:57:24;;;;;;;2.55;2.35;;;18.40;99.90;;;;;;4972168;28;20752;-77
2021/06/12 00:59:49;;;;;;;4.45;2.30;;;18.40;99.90;;;;;;4971391;28;20265;-77
2021/06/12 01:02:15;;;;;;;2.40;2.05;;;18.50;99.90;;;;;;4970834;28;20185;-77
2021/06/12 01:04:41;;;;;;;2.47;2.28;;;18.50;99.90;;;;;;4972046;28;20451;-77
2021/06/12 01:07:06;;;;;;;2.45;2.25;;;18.50;99.90;;;;;;4971861;28;20225;-77
2021/06/12 01:09:32;;;;;;;2.83;2.38;;;18.50;99.90;;;;;;4971516;28;20252;-77
2021/06/12 01:12:12;;;;;;;2.78;2.47;;;18.50;99.90;;;;;;4970148;28;20189;-78
2021/06/12 01:14:42;;;;;;;3.47;2.47;;;18.60;99.90;;;;;;4970543;28;20722;-78
2021/06/12 01:17:28;;;;;;;3.33;2.42;;;18.50;99.90;;;;;;4971425;28;20207;-77
2021/06/12 01:20:25;;;;;;;3.15;2.85;;;18.50;99.90;;;;;;4970215;28;20185;-80
2021/06/12 01:23:12;;;;;;;2.05;1.90;;;18.50;99.90;;;;;;4972688;28;20205;-80
2021/06/12 01:26:13;;;;;;;2.42;2.13;;;18.50;99.90;;;;;;4972114;28;20258;-80
2021/06/12 01:29:03;;;;;;;2.55;2.08;;;18.40;99.90;;;;;;4972835;28;20561;-80
2021/06/12 01:31:30;;;;;;;2.95;2.65;;;18.50;99.90;;;;;;4973584;28;20602;-78
2021/06/12 01:33:58;;;;;;;2.47;2.22;;;18.40;99.90;;;;;;4972953;28;20203;-79
2021/06/12 01:36:26;;;;;;;2.95;2.65;;;18.50;99.90;;;;;;4987344;28;20213;-79
2021/06/12 01:38:55;;;;;;;2.60;2.40;;;18.50;99.90;;;;;;4975505;28;20672;-80
2021/06/12 01:41:21;;;;;;;2.65;2.45;;;18.40;99.90;;;;;;4975327;28;20192;-78
2021/06/12 01:43:49;;;;;;;2.83;2.58;;;18.40;99.90;;;;;;4975142;28;20230;-79
2021/06/12 01:46:16;;;;;;;2.20;2.00;;;18.50;99.90;;;;;;4975975;28;20698;-79
2021/06/12 01:48:44;;;;;;;3.42;2.60;;;18.50;99.90;;;;;;4975497;28;20177;-78
2021/06/12 01:51:11;;;;;;;2.55;2.35;;;18.40;99.90;;;;;;4975425;28;20576;-78
2021/06/12 01:53:40;;;;;;;2.33;2.13;;;18.40;99.90;;;;;;4972700;28;20271;-78
2021/06/12 01:56:08;;;;;;;3.65;2.58;;;18.40;99.90;;;;;;4963997;28;20292;-78
2021/06/12 01:58:40;;;;;;;2.63;2.42;;;18.40;99.90;;;;;;4981782;28;20266;-80
2021/06/12 02:01:07;;;;;;;2.83;2.38;;;18.30;99.90;;;;;;4975893;28;20203;-79
2021/06/12 02:03:34;;;;;;;2.83;2.33;;;18.40;99.90;;;;;;4975670;28;20690;-78
2021/06/12 02:06:00;;;;;;;2.50;2.30;;;18.40;99.90;;;;;;4974468;28;20247;-78
2021/06/12 02:08:27;;;;;;;2.90;2.45;;;18.40;99.90;;;;;;4975705;28;20189;-80
2021/06/12 02:10:54;;;;;;;2.70;2.38;;;18.50;99.90;;;;;;4974792;28;20212;-78
2021/06/12 02:13:24;;;;;;;2.40;2.20;;;18.50;99.90;;;;;;4976190;28;20772;-79
2021/06/12 02:15:56;;;;;;;3.22;2.25;;;18.50;99.90;;;;;;4975597;28;20208;-79
2021/06/12 02:18:24;;;;;;;5.63;2.63;;;18.50;99.90;;;;;;4974292;28;21202;-79
2021/06/12 02:20:51;;;;;;;3.55;2.78;;;18.50;99.90;;;;;;4974532;28;20188;-79
2021/06/12 02:23:17;;;;;;;2.80;2.60;;;18.50;99.90;;;;;;4975757;28;20204;-78
2021/06/12 02:25:47;;;;;;;3.47;3.10;;;18.50;99.90;;;;;;4974831;28;20313;-80
2021/06/12 02:28:16;;;;;;;2.97;2.58;;;18.50;99.90;;;;;;4975926;28;20185;-79
2021/06/12 02:30:45;;;;;;;3.20;2.85;;;18.50;99.90;;;;;;4975857;28;20208;-80
2021/06/12 02:33:14;;;;;;;3.15;2.78;;;18.50;99.90;;;;;;4975434;28;20185;-77
2021/06/12 02:35:40;;;;;;;3.10;2.80;;;18.50;99.90;;;;;;4975441;28;20212;-79
2021/06/12 02:38:06;;;;;;;3.13;2.83;;;18.50;99.90;;;;;;4975863;28;20204;-79
2021/06/12 02:40:32;;;;;;;2.70;2.50;;;18.50;99.90;;;;;;4975420;28;20537;-78
2021/06/12 02:42:58;;;;;;;3.28;2.97;;;18.50;99.90;;;;;;4975118;28;20224;-80
2021/06/12 02:45:24;;;;;;;3.45;2.90;;;18.50;99.90;;;;;;4975675;28;20205;-78
2021/06/12 02:47:56;;;;;;;2.95;2.60;;;18.50;99.90;;;;;;4975708;28;20177;-78
2021/06/12 02:50:26;;;;;;;4.05;3.00;;;18.50;99.90;;;;;;4974916;28;20200;-80
2021/06/12 02:52:53;;;;;;;3.42;3.13;;;18.50;99.90;;;;;;4975117;28;20846;-79
2021/06/12 02:55:19;;;;;;;7.15;3.25;;;18.40;99.90;;;;;;4974351;28;20943;-79
2021/06/12 02:57:48;;;;;;;3.15;2.72;;;18.40;99.90;;;;;;4973958;28;20189;-80
2021/06/12 03:00:17;;;;;;;2.70;2.50;;;18.40;99.90;;;;;;4975451;28;20200;-78
2021/06/12 03:02:44;;;;;;;4.30;3.15;;;18.30;99.90;;;;;;4974437;28;20189;-80
2021/06/12 03:05:15;;;;;;;3.15;2.65;;;18.30;99.90;;;;;;4974985;28;20201;-80
2021/06/12 03:07:44;;;;;;;3.28;2.75;;;18.40;99.90;;;;;;4972924;28;20675;-78
2021/06/12 03:10:11;;;;;;;3.47;3.17;;;18.40;99.90;;;;;;4974675;28;20184;-79
2021/06/12 03:12:38;;;;;;;2.97;2.67;;;18.40;99.90;;;;;;4976509;28;20181;-78
2021/06/12 03:15:05;;;;;;;3.03;2.72;;;18.40;99.90;;;;;;4991972;28;20281;-79
2021/06/12 03:17:30;;;;;;;3.13;2.65;;;18.40;99.90;;;;;;4977824;28;20181;-77
2021/06/12 03:19:57;;;;;;;3.22;2.92;;;18.40;99.90;;;;;;4978448;28;20193;-79
2021/06/12 03:22:24;;;;;;;3.17;2.88;;;18.40;99.90;;;;;;4980229;28;20189;-80
2021/06/12 03:24:50;;;;;;;2.85;2.63;;;18.40;99.90;;;;;;4981007;28;20510;-77
2021/06/12 03:27:16;;;;;;;4.65;2.90;;;18.40;99.90;;;;;;4979751;28;20331;-80
2021/06/12 03:29:42;;;;;;;4.60;2.95;;;18.40;99.90;;;;;;4978133;28;20205;-80
2021/06/12 03:32:08;;;;;;;3.10;2.58;;;18.40;99.90;;;;;;4977849;28;20187;-79
2021/06/12 03:34:34;;;;;;;3.22;2.92;;;18.30;99.90;;;;;;4979377;28;20189;-78
2021/06/12 03:37:01;;;;;;;4.38;3.05;;;18.30;99.90;;;;;;4980286;28;20224;-80
2021/06/12 03:39:26;;;;;;;2.88;2.67;;;18.40;99.90;;;;;;4995405;28;20189;-79
2021/06/12 03:41:54;;;;;;;3.42;2.72;;;18.50;99.90;;;;;;4980439;28;20200;-80
2021/06/12 03:44:21;;;;;;;2.55;2.35;;;18.60;99.90;;;;;;4979090;28;20297;-79
2021/06/12 03:46:48;;;;;;;5.75;3.03;;;18.60;99.90;;;;;;4972662;28;20282;-79
2021/06/12 03:49:15;;;;;;;2.92;2.63;;;18.70;99.90;;;;;;4973145;28;20189;-79
2021/06/12 03:51:42;;;;;;;3.65;2.78;;;18.70;99.90;;;;;;4976665;28;20185;-78
2021/06/12 03:54:08;;;;;;;3.53;2.90;;;18.60;99.90;;;;;;4977431;28;20185;-79
2021/06/12 03:56:36;;;;;;;3.20;2.90;;;18.50;99.90;;;;;;4976267;28;20353;-79
2021/06/12 03:59:04;;;;;;;2.88;2.55;;;18.60;99.90;;;;;;4975217;28;20193;-80
2021/06/12 04:01:29;;;;;;;3.10;2.80;;;18.60;99.90;;;;;;4977681;28;20193;-77
2021/06/12 04:03:55;;;;;;;7.95;3.00;;;18.60;99.90;;;;;;4973675;28;20653;-79
2021/06/12 04:06:20;;;;;;;3.97;3.20;;;18.60;99.90;;;;;;4970382;28;20223;-79
2021/06/12 04:08:49;;;;;;;3.42;3.13;;;18.80;99.90;;;;;;4971116;28;20237;-80
2021/06/12 04:11:15;;;;;;;3.45;3.00;;;18.80;99.90;;;;;;4973111;28;20213;-80
2021/06/12 04:13:41;;;;;;;3.08;2.58;;;18.80;99.90;;;;;;4974876;28;20200;-79
2021/06/12 04:16:12;;;;;;;2.67;2.47;;;18.90;99.90;;;;;;4975977;28;20223;-80
2021/06/12 04:18:38;;;;;;;2.83;2.50;;;18.90;99.90;;;;;;4978119;28;20192;-80
2021/06/12 04:21:05;;;;;;;5.28;2.88;;;18.90;99.90;;;;;;4975436;28;20181;-80
2021/06/12 04:23:32;;;;;;;3.15;2.58;;;18.90;99.90;;;;;;4977298;28;20291;-80
2021/06/12 04:25:58;;;;;;;2.83;2.25;;;19.00;99.90;;;;;;4977754;28;20205;-81
2021/06/12 04:28:23;;;;;;;4.22;2.95;;;19.10;99.90;;;;;;4977173;28;20225;-78
2021/06/12 04:30:53;;;;;;;3.35;2.63;;;19.20;99.90;;;;;;4976381;28;20202;-79
2021/06/12 04:33:19;;;;;;;2.67;2.17;;;19.30;99.90;;;;;;4976829;28;20220;-78
2021/06/12 04:35:45;;;;;;;2.35;2.15;;;19.40;99.90;;;;;;4975451;28;20209;-80
2021/06/12 04:38:11;;;;;;;4.00;3.38;;;19.40;99.90;;;;;;4977330;28;20189;-79
2021/06/12 04:40:37;;;;;;;3.45;3.00;;;19.30;99.90;;;;;;4979062;28;20185;-79
2021/06/12 04:43:05;;;;;;;2.75;2.47;;;19.40;99.90;;;;;;4978213;28;20608;-80
2021/06/12 04:45:30;;;;;;;3.28;2.95;;;19.40;99.90;;;;;;4977578;28;20205;-81
2021/06/12 04:47:56;;;;;;;5.82;3.33;;;19.50;99.90;;;;;;4977211;28;20188;-78
2021/06/12 04:50:22;;;;;;;3.75;3.25;;;19.70;99.90;;;;;;4973474;28;20189;-80
2021/06/12 04:52:47;;;;;;;3.65;3.35;;;19.90;99.90;;;;;;4973169;28;20751;-78
2021/06/12 04:55:14;;;;;;;4.35;3.35;;;20.00;99.90;;;;;;4967948;28;20205;-78
2021/06/12 04:57:40;;;;;;;3.42;3.03;;;20.10;99.90;;;;;;4964179;28;20608;-79
2021/06/12 05:00:11;;;;;;;4.15;3.15;;;20.20;99.90;;;;;;4972721;28;20185;-79
2021/06/12 05:02:39;;;;;;;3.95;3.53;;;20.20;99.90;;;;;;4976530;28;20184;-79
2021/06/12 05:05:06;;;;;;;4.03;3.45;;;20.20;99.90;;;;;;4977925;28;20226;-78
2021/06/12 05:07:32;;;;;;;4.63;3.58;;;20.20;99.90;;;;;;4977057;28;20211;-78
2021/06/12 05:09:57;;;;;;;4.47;3.33;;;20.30;99.90;;;;;;4976987;28;20241;-80
2021/06/12 05:12:24;;;;;;;3.70;3.30;;;20.20;99.90;;;;;;4976542;28;20185;-80
2021/06/12 05:14:52;;;;;;;4.15;3.45;;;20.30;99.90;;;;;;4977245;28;20188;-81
2021/06/12 05:17:19;;;;;;;3.10;2.80;;;20.40;99.90;;;;;;4978071;28;20275;-80
2021/06/12 05:19:44;;;;;;;3.47;3.00;;;20.50;99.90;;;;;;4976682;28;20189;-80
2021/06/12 05:22:10;;;;;;;3.55;3.25;;;20.70;99.90;;;;;;4978275;28;20259;-79
2021/06/12 05:24:36;;;;;;;4.28;3.67;;;20.90;99.90;;;;;;4977954;28;20204;-79
2021/06/12 05:27:03;;;;;;;3.67;3.35;;;21.00;99.90;;;;;;4978082;28;20334;-80
2021/06/12 05:29:28;;;;;;;4.05;3.13;;;21.00;99.90;;;;;;4977606;28;20252;-78
2021/06/12 05:31:54;;;;;;;4.35;3.75;;;21.20;99.90;;;;;;4977875;28;20185;-80
2021/06/12 05:34:20;;;;;;;3.95;3.53;;;21.30;99.90;;;;;;4975433;28;20209;-79
2021/06/12 05:36:45;;;;;;;4.10;3.70;;;21.40;99.90;;;;;;4975302;28;20219;-79
2021/06/12 05:39:11;;;;;;;4.47;3.90;;;21.30;99.90;;;;;;4976861;28;20285;-79
2021/06/12 05:41:39;;;;;;;4.60;3.97;;;21.20;99.90;;;;;;4975030;28;20208;-79
2021/06/12 05:44:07;;;;;;;3.95;3.55;;;21.10;99.90;;;;;;4976778;28;20219;-79
2021/06/12 05:46:33;;;;;;;4.60;3.75;;;21.00;99.90;;;;;;4975089;28;20750;-78
2021/06/12 05:49:00;;;;;;;4.43;3.80;;;21.00;99.90;;;;;;4976593;28;20230;-79
2021/06/12 05:51:27;;;;;;;4.93;4.25;;;21.00;99.90;;;;;;4974753;28;20200;-78
2021/06/12 05:53:52;;;;;;;4.68;3.67;;;21.10;99.90;;;;;;4975734;28;20185;-78
2021/06/12 05:56:18;;;;;;;5.22;4.25;;;21.20;99.90;;;;;;4976293;28;20281;-80
2021/06/12 05:58:43;;;;;;;4.50;4.05;;;21.20;99.90;;;;;;4974383;28;20189;-80
2021/06/12 06:01:09;;;;;;;4.15;3.75;;;21.30;99.90;;;;;;4975079;28;20243;-79
2021/06/12 06:03:35;;;;;;;4.75;3.47;;;21.40;99.90;;;;;;4973066;28;20213;-78
2021/06/12 06:06:01;;;;;;;4.43;3.50;;;21.50;99.90;;;;;;4975416;28;20248;-80
2021/06/12 06:08:26;;;;;;;4.72;3.53;;;21.50;99.90;;;;;;4974091;28;20181;-77
2021/06/12 06:10:52;;;;;;;4.82;3.95;;;21.60;99.90;;;;;;4975616;28;20196;-79
2021/06/12 06:13:18;;;;;;;5.82;4.05;;;21.60;99.90;;;;;;4974929;28;20272;-78
2021/06/12 06:15:44;;;;;;;5.50;4.32;;;21.60;99.90;;;;;;4974461;28;20311;-79
2021/06/12 06:18:09;;;;;;;6.25;4.63;;;21.50;99.90;;;;;;4975909;28;20212;-80
2021/06/12 06:20:35;;;;;;;5.68;4.20;;;21.50;99.90;;;;;;4971049;28;20201;-78
2021/06/12 06:23:00;;;;;;;6.18;4.43;;;21.40;99.90;;;;;;4970920;28;20189;-78
2021/06/12 06:25:26;;;;;;;8.23;5.38;;;21.40;99.90;;;;;;4972547;28;20216;-79
2021/06/12 06:27:52;;;;;;;8.48;5.43;;;21.50;99.90;;;;;;4972913;28;20242;-76
2021/06/12 06:30:17;;;;;;;7.05;5.40;;;21.50;99.90;;;;;;4962756;28;20799;-76
2021/06/12 06:32:43;;;;;;;11.90;6.05;;;21.60;99.90;;;;;;4962428;28;20238;-76
2021/06/12 06:35:10;;;;;;;8.65;5.50;;;21.90;99.90;;;;;;4961203;28;20205;-76
2021/06/12 06:37:35;;;;;;;7.78;5.22;;;22.00;99.90;;;;;;4961265;28;20185;-76
2021/06/12 06:40:01;;;;;;;5.90;5.30;;;21.90;99.90;;;;;;4961318;28;20196;-76
2021/06/12 06:42:27;;;;;;;5.82;4.95;;;21.70;99.90;;;;;;4960843;28;20196;-76
2021/06/12 06:44:52;;;;;;;6.65;4.95;;;21.60;99.90;;;;;;4962457;28;20704;-78
2021/06/12 06:47:18;;;;;;;6.70;5.22;;;21.50;99.90;;;;;;4963177;28;20193;-76
2021/06/12 06:49:43;;;;;;;5.32;4.57;;;21.40;99.90;;;;;;4963413;28;20202;-76
2021/06/12 06:52:09;;;;;;;6.10;4.63;;;21.30;99.90;;;;;;4964416;28;20207;-76
2021/06/12 06:54:35;;;;;;;7.30;5.10;;;21.10;99.90;;;;;;4964251;28;20253;-77
2021/06/12 06:57:00;;;;;;;6.80;4.85;;;21.20;99.90;;;;;;4964463;28;20288;-76
2021/06/12 06:59:26;;;;;;;7.65;4.63;;;21.20;99.90;;;;;;4964024;28;20200;-77
2021/06/12 07:01:51;;;;;;;5.22;4.07;;;21.20;99.90;;;;;;4963099;28;20224;-77
2021/06/12 07:04:17;;;;;;;5.95;4.47;;;21.40;99.90;;;;;;4961924;28;20255;-77
2021/06/12 07:06:43;;;;;;;4.78;4.18;;;21.70;99.90;;;;;;4963011;28;20702;-76
2021/06/12 07:09:08;;;;;;;5.60;4.50;;;22.00;99.90;;;;;;4964046;28;20206;-76
2021/06/12 07:11:34;;;;;;;5.38;4.43;;;22.20;99.90;;;;;;4963246;28;20669;-76
2021/06/12 07:13:59;;;;;;;4.90;4.20;;;22.10;99.90;;;;;;4963133;28;20242;-76
2021/06/12 07:16:25;;;;;;;5.35;4.15;;;21.90;99.90;;;;;;4961804;28;20303;-76
2021/06/12 07:18:50;;;;;;;5.97;4.30;;;21.70;99.90;;;;;;4963550;28;20569;-76
2021/06/12 07:21:16;;;;;;;5.85;4.18;;;21.50;99.90;;;;;;4963850;28;20187;-77
2021/06/12 07:23:42;;;;;;;5.07;4.22;;;21.20;99.90;;;;;;4963513;28;20224;-76
2021/06/12 07:26:07;;;;;;;7.57;4.35;;;21.00;99.90;;;;;;4963427;28;20603;-76
2021/06/12 07:28:33;;;;;;;5.38;4.68;;;20.90;99.90;;;;;;4963169;28;20185;-75
2021/06/12 07:30:58;;;;;;;6.40;4.68;;;20.70;99.90;;;;;;4962807;28;20185;-77
2021/06/12 07:33:24;;;;;;;6.38;4.15;;;21.00;99.90;;;;;;4963657;28;20189;-76
2021/06/12 07:35:49;;;;;;;5.88;3.72;;;21.00;99.90;;;;;;4963890;28;20227;-79
2021/06/12 07:38:15;;;;;;;6.45;4.40;;;21.00;99.90;;;;;;4968997;28;20195;-78
2021/06/12 07:40:43;;;;;;;6.43;4.13;;;21.00;99.90;;;;;;4967358;28;20193;-79
2021/06/12 07:43:09;;;;;;;6.82;4.03;;;21.00;99.90;;;;;;4965977;28;20303;-78
2021/06/12 07:45:35;;;;;;;5.43;3.92;;;20.90;99.90;;;;;;4963397;28;20224;-76
2021/06/12 07:48:00;;;;;;;7.00;4.32;;;20.70;99.90;;;;;;4961814;28;20185;-76
2021/06/12 07:50:26;;;;;;;6.45;4.05;;;20.60;99.90;;;;;;4962511;28;20627;-76
2021/06/12 07:52:52;;;;;;;5.90;4.03;;;20.50;99.90;;;;;;4965980;28;20230;-75
2021/06/12 07:55:18;;;;;;;5.82;3.90;;;20.30;99.90;;;;;;4963622;28;20597;-75
2021/06/12 07:57:44;;;;;;;6.15;4.32;;;20.30;99.90;;;;;;4963102;28;20181;-76
2021/06/12 08:00:10;;;;;;;5.47;4.22;;;20.40;99.90;;;;;;4963172;28;20235;-74
2021/06/12 08:02:36;;;;;;;6.43;4.30;;;20.30;99.90;;;;;;4962954;28;20193;-76
2021/06/12 08:05:04;;;;;;;8.13;4.88;;;20.10;99.90;;;;;;4962842;28;20217;-76
2021/06/12 08:07:30;;;;;;;5.85;4.25;;;20.10;99.90;;;;;;4961573;28;20625;-76
2021/06/12 08:09:57;;;;;;;6.68;4.70;;;20.10;99.90;;;;;;4962942;28;20189;-76
2021/06/12 08:12:22;;;;;;;7.40;4.82;;;20.20;99.90;;;;;;4962833;28;20248;-76
2021/06/12 08:14:49;;;;;;;6.22;4.30;;;20.40;99.90;;;;;;4962504;28;20189;-76
2021/06/12 08:17:15;;;;;;;6.88;5.03;;;20.80;99.90;;;;;;4962920;28;20689;-76
2021/06/12 08:19:40;;;;;;;6.32;4.18;;;21.10;99.90;;;;;;4962901;28;20526;-76
2021/06/12 08:22:06;;;;;;;5.20;4.00;;;21.60;99.90;;;;;;4962576;28;20188;-76
2021/06/12 08:24:32;;;;;;;5.13;4.10;;;21.80;99.90;;;;;;4962380;28;20303;-76
2021/06/12 08:26:58;;;;;;;5.45;3.67;;;22.10;99.90;;;;;;4961211;28;20239;-76
2021/06/12 08:29:23;;;;;;;4.13;3.72;;;22.10;99.90;;;;;;4961366;28;20295;-76
2021/06/12 08:31:49;;;;;;;7.40;3.33;;;21.80;99.90;;;;;;4962603;28;20200;-76
2021/06/12 08:34:15;;;;;;;4.88;3.72;;;21.50;99.90;;;;;;4960873;28;20248;-76
2021/06/12 08:36:40;;;;;;;4.28;3.58;;;21.30;99.90;;;;;;4961743;28;20709;-76
2021/06/12 08:39:06;;;;;;;5.35;3.55;;;21.20;99.90;;;;;;4962260;28;20189;-76
2021/06/12 08:41:31;;;;;;;3.92;3.30;;;21.40;99.90;;;;;;4962405;28;20456;-76
2021/06/12 08:43:59;;;;;;;4.95;3.70;;;21.40;99.90;;;;;;4962414;28;20209;-75
2021/06/12 08:46:27;;;;;;;5.03;3.65;;;21.60;99.90;;;;;;4961913;28;20197;-75
2021/06/12 08:48:53;;;;;;;3.40;3.08;;;21.70;99.90;;;;;;4961865;28;20254;-75
2021/06/12 08:51:19;;;;;;;3.42;3.08;;;21.70;99.90;;;;;;4962788;28;20600;-75
2021/06/12 08:53:44;;;;;;;4.03;3.15;;;22.00;99.90;;;;;;4961411;28;20411;-76
2021/06/12 08:56:10;;;;;;;3.30;2.60;;;22.40;99.90;;;;;;4961832;28;20250;-75
2021/06/12 08:58:35;;;;;;;3.03;2.72;;;22.40;99.90;;;;;;4961890;28;20181;-75
2021/06/12 09:01:02;;;;;;;2.50;2.30;;;22.50;99.90;;;;;;4962424;28;20185;-76
2021/06/12 09:03:29;;;;;;;3.45;2.42;;;22.80;99.90;;;;;;4961134;28;20266;-75
2021/06/12 09:05:59;;;;;;;2.65;2.45;;;22.90;99.90;;;;;;4960831;28;20247;-75
2021/06/12 09:08:33;;;;;;;4.22;3.10;;;23.00;99.90;;;;;;4961319;28;20239;-75
2021/06/12 09:11:03;;;;;;;5.05;3.47;;;23.00;99.90;;;;;;4961894;28;20230;-77
2021/06/12 09:13:48;;;;;;;5.35;3.30;;;23.00;99.90;;;;;;4961726;28;20189;-75
2021/06/12 09:16:27;;;;;;;6.50;4.35;;;23.00;99.90;;;;;;4960736;28;20455;-75
2021/06/12 09:19:16;;;;;;;4.63;4.13;;;22.80;99.90;;;;;;4961363;28;20224;-75
2021/06/12 09:21:50;;;;;;;3.97;3.50;;;22.40;99.90;;;;;;4961528;28;20212;-75
2021/06/12 09:24:27;;;;;;;5.10;3.63;;;22.20;99.90;;;;;;4960943;28;20205;-75
2021/06/12 09:26:58;;;;;;;3.80;3.40;;;22.30;99.90;;;;;;4961270;28;20303;-75
2021/06/12 09:29:53;;;;;;;3.58;3.22;;;22.30;99.90;;;;;;4961640;28;20280;-75
2021/06/12 09:32:24;;;;;;;3.67;3.05;;;22.60;99.90;;;;;;4973060;28;20236;-76
2021/06/12 09:34:57;;;;;;;5.43;3.03;;;22.70;99.90;;;;;;4963601;28;20208;-76
2021/06/12 09:37:29;;;;;;;4.05;3.10;;;23.00;99.90;;;;;;4961388;28;20185;-75
2021/06/12 09:39:59;;;;;;;4.57;3.63;;;23.10;99.90;;;;;;4962203;28;20180;-75
2021/06/12 09:42:43;;;;;;;4.07;3.50;;;22.90;99.90;;;;;;4960953;28;20221;-75
2021/06/12 09:45:14;;;;;;;4.90;3.88;;;22.60;99.90;;;;;;4961093;28;20227;-75
2021/06/12 09:47:40;;;;;;;4.53;3.63;;;22.30;99.90;;;;;;4959621;28;20209;-75
2021/06/12 09:50:07;;;;;;;4.15;3.38;;;22.50;99.90;;;;;;4961095;28;20650;-75
2021/06/12 09:52:48;;;;;;;6.47;3.65;;;22.40;99.90;;;;;;4961228;28;20273;-77
2021/06/12 09:55:26;;;;;;;4.10;3.25;;;22.40;99.90;;;;;;4960395;28;20213;-76
2021/06/12 09:57:53;;;;;;;3.13;2.83;;;22.80;99.90;;;;;;4961079;28;20184;-76
2021/06/12 10:00:38;;;;;;;4.38;3.40;;;22.90;99.90;;;;;;4960913;28;20436;-76
2021/06/12 10:03:15;;;;;;;3.72;2.97;;;23.40;99.90;;;;;;4960818;28;20650;-76
2021/06/12 10:05:40;;;;;;;5.70;3.13;;;23.60;99.90;;;;;;4960845;28;20239;-76
2021/06/12 10:08:06;;;;;;;4.22;3.00;;;24.00;99.90;;;;;;4960772;28;20257;-75
2021/06/12 10:10:32;;;;;;;3.78;3.10;;;24.10;99.90;;;;;;4960791;28;20193;-76
2021/06/12 10:12:59;;;;;;;4.30;2.85;;;24.00;99.90;;;;;;4960869;28;20195;-76
2021/06/12 10:15:25;;;;;;;3.67;2.78;;;23.90;99.90;;;;;;4960562;28;20252;-76
2021/06/12 10:17:52;;;;;;;3.53;3.05;;;23.70;99.90;;;;;;4960194;28;20659;-75
2021/06/12 10:20:20;;;;;;;2.97;2.67;;;23.40;99.90;;;;;;4960633;28;20189;-75
2021/06/12 10:22:46;;;;;;;3.13;2.78;;;23.20;99.90;;;;;;4960279;28;20291;-76
2021/06/12 10:25:14;;;;;;;3.33;3.03;;;23.40;99.90;;;;;;4960529;28;20216;-76
2021/06/12 10:27:42;;;;;;;2.95;2.63;;;23.10;99.90;;;;;;4960907;28;20410;-76
2021/06/12 10:30:10;;;;;;;3.38;2.80;;;23.00;99.90;;;;;;4960532;28;20622;-77
2021/06/12 10:32:42;;;;;;;3.10;2.80;;;23.00;99.90;;;;;;4960582;28;20254;-76
2021/06/12 10:35:08;;;;;;;3.60;2.50;;;23.00;99.90;;;;;;4959900;28;20227;-76
2021/06/12 10:38:17;;;;;;;2.53;2.33;;;23.30;99.90;;;;;;4960627;28;20189;-76
2021/06/12 10:40:52;;;;;;;4.15;2.72;;;23.20;99.90;;;;;;4959147;28;20709;-76
2021/06/12 10:43:26;;;;;;;2.63;2.38;;;23.50;99.90;;;;;;4962587;28;20260;-75
2021/06/12 10:46:14;;;;;;;3.83;2.47;;;23.90;99.90;;;;;;4962375;28;20208;-76
2021/06/12 10:48:46;;;;;;;2.80;2.60;;;24.30;99.90;;;;;;4960775;28;20212;-76
2021/06/12 10:51:36;;;;;;;2.55;2.20;;;24.10;99.90;;;;;;4960485;28;20213;-76
2021/06/12 10:54:07;;;;;;;2.95;2.38;;;23.50;99.90;;;;;;4960815;28;20189;-73
2021/06/12 10:56:36;;;;;;;3.10;2.63;;;23.10;99.90;;;;;;4960923;28;20403;-75
2021/06/12 10:59:03;;;;;;;2.40;2.20;;;22.30;99.90;;;;;;4960440;28;20184;-76
2021/06/12 11:01:30;;;;;;;3.63;2.35;;;21.90;99.90;;;;;;4961002;28;20200;-76
2021/06/12 11:06:50;;;;;;;2.90;2.33;;;21.20;99.90;;;;;;4960119;28;20228;-76
2021/06/12 11:09:18;;;;;;;2.50;2.30;;;21.10;99.90;;;;;;4956046;28;20190;-76
2021/06/12 11:11:45;;;;;;;2.35;2.15;;;21.00;99.90;;;;;;4959690;28;20621;-75
2021/06/12 11:14:25;;;;;;;2.65;2.45;;;21.00;99.90;;;;;;4961170;28;20246;-75
2021/06/12 11:19:39;;;;;;;2.53;2.08;;;20.80;99.90;;;;;;4960775;28;20242;-73
2021/06/12 11:22:37;;;;;;;2.33;2.08;;;20.80;99.90;;;;;;4960537;28;20177;-75
2021/06/12 11:25:09;;;;;;;2.67;2.45;;;20.80;99.90;;;;;;4958731;28;20212;-75
2021/06/12 11:27:40;;;;;;;2.90;2.60;;;20.70;99.90;;;;;;4958700;28;20673;-74
2021/06/12 11:30:13;;;;;;;2.95;2.63;;;20.60;99.90;;;;;;4962072;28;20192;-74
2021/06/12 11:32:45;;;;;;;2.38;2.17;;;20.80;99.90;;;;;;4964189;28;20686;-74
2021/06/12 11:35:12;;;;;;;3.38;2.65;;;21.00;99.90;;;;;;4963368;28;20698;-74
2021/06/12 11:37:49;;;;;;;2.83;2.63;;;21.20;99.90;;;;;;4963287;28;20192;-76
2021/06/12 11:40:21;;;;;;;3.45;2.95;;;21.50;99.90;;;;;;4960976;28;20622;-76
2021/06/12 11:42:49;;;;;;;3.28;2.88;;;21.90;99.90;;;;;;4961882;28;20657;-75
2021/06/12 11:45:25;;;;;;;3.60;2.67;;;22.20;99.90;;;;;;4965608;28;20212;-76
2021/06/12 11:47:53;;;;;;;5.38;3.22;;;22.30;99.90;;;;;;4968368;28;20185;-75
2021/06/12 11:50:30;;;;;;;3.50;3.20;;;22.50;99.90;;;;;;4968984;28;20205;-73
2021/06/12 11:52:56;;;;;;;3.63;2.83;;;22.80;99.90;;;;;;4970192;28;20668;-73
2021/06/12 11:55:25;;;;;;;4.07;2.75;;;23.40;99.90;;;;;;4964100;28;20299;-73
2021/06/12 11:57:53;;;;;;;3.55;2.67;;;23.70;99.90;;;;;;4962934;28;21188;-75
2021/06/12 12:00:37;;;;;;;2.60;2.40;;;24.10;99.90;;;;;;4962463;28;20185;-76
2021/06/12 12:03:11;;;;;;;2.55;2.35;;;24.20;99.90;;;;;;4962500;28;20220;-76
2021/06/12 12:05:42;;;;;;;3.67;2.55;;;24.10;99.90;;;;;;4961263;28;20543;-75
2021/06/12 12:08:18;;;;;;;2.92;2.35;;;23.80;99.90;;;;;;4960222;28;20558;-75
2021/06/12 12:10:49;;;;;;;2.85;2.20;;;23.80;99.90;;;;;;4968960;28;20201;-79
2021/06/12 12:13:23;;;;;;;3.53;2.00;;;23.90;99.90;;;;;;4974053;28;20515;-78
2021/06/12 12:15:49;;;;;;;2.00;1.80;;;24.00;99.90;;;;;;4972435;28;20230;-79
2021/06/12 12:18:14;;;;;;;2.05;1.90;;;23.80;99.90;;;;;;4976255;28;20185;-79
2021/06/12 12:20:58;;;;;;;1.80;1.70;;;23.40;99.90;;;;;;4975139;28;20188;-80
2021/06/12 12:23:29;;;;;;;6.30;2.17;;;23.10;99.90;;;;;;4972946;28;20224;-78
2021/06/12 12:26:14;;;;;;;2.45;1.45;;;23.10;99.90;;;;;;4973340;28;20562;-78
2021/06/12 12:29:05;;;;;;;2.25;1.85;;;23.20;99.90;;;;;;4975203;28;20184;-79
2021/06/12 12:31:33;;;;;;;1.60;1.50;;;23.50;99.90;;;;;;4971735;28;20188;-79
2021/06/12 12:34:00;;;;;;;1.60;1.50;;;23.80;99.90;;;;;;4973166;28;20181;-78
2021/06/12 12:36:27;;;;;;;4.38;1.88;;;23.90;99.90;;;;;;4970725;28;21058;-78
2021/06/12 12:39:03;;;;;;;1.90;1.60;;;23.90;99.90;;;;;;4973504;28;20396;-79
2021/06/12 12:41:31;;;;;;;3.10;2.03;;;23.70;99.90;;;;;;4971813;28;20214;-79
2021/06/12 12:44:08;;;;;;;2.40;1.70;;;24.00;99.90;;;;;;4972658;28;20209;-81
2021/06/12 12:46:36;;;;;;;2.50;1.98;;;24.00;99.90;;;;;;4972493;28;20481;-79
2021/06/12 12:49:02;;;;;;;1.90;1.80;;;23.80;99.90;;;;;;4971792;28;20185;-79
2021/06/12 12:51:27;;;;;;;3.05;2.25;;;23.50;99.90;;;;;;4972766;28;20189;-79
2021/06/12 12:53:53;;;;;;;1.65;1.55;;;23.40;99.90;;;;;;4970975;28;20200;-79
2021/06/12 12:56:19;;;;;;;2.85;1.60;;;23.10;99.90;;;;;;4971633;28;20208;-77
2021/06/12 12:58:51;;;;;;;2.00;1.77;;;23.20;99.90;;;;;;4970550;28;20225;-80
2021/06/12 13:01:17;;;;;;;1.55;1.45;;;23.50;99.90;;;;;;4972576;28;20184;-79